sensor_id;sensor_type;location;lat;lon;timestamp;temperature;humidity
66708;DHT22;53622;0.000;0.000;2022-07-29T00:01:42;23.90;66.60
66708;DHT22;53622;0.000;0.000;2022-07-29T00:04:12;23.90;66.50
66708;DHT22;53622;0.000;0.000;2022-07-29T00:06:42;23.90;66.50
66708;DHT22;53622;0.000;0.000;2022-07-29T00:09:11;23.90;66.60
66708;DHT22;53622;0.000;0.000;2022-07-29T00:11:40;23.90;66.60
66708;DHT22;53622;0.000;0.000;2022-07-29T00:14:11;23.90;66.60
66708;DHT22;53622;0.000;0.000;2022-07-29T00:16:41;23.90;66.60
66708;DHT22;53622;0.000;0.000;2022-07-29T00:19:10;23.90;66.50
66708;DHT22;53622;0.000;0.000;2022-07-29T00:21:39;23.90;66.60
66708;DHT22;53622;0.000;0.000;2022-07-29T00:24:09;23.90;66.50
66708;DHT22;53622;0.000;0.000;2022-07-29T00:26:39;23.90;66.60
66708;DHT22;53622;0.000;0.000;2022-07-29T00:29:08;23.90;66.60
66708;DHT22;53622;0.000;0.000;2022-07-29T00:31:58;23.90;66.60
66708;DHT22;53622;0.000;0.000;2022-07-29T00:34:28;23.90;66.60
66708;DHT22;53622;0.000;0.000;2022-07-29T00:37:15;23.90;66.60
66708;DHT22;53622;0.000;0.000;2022-07-29T00:39:44;23.90;66.60
66708;DHT22;53622;0.000;0.000;2022-07-29T00:42:13;23.90;66.60
66708;DHT22;53622;0.000;0.000;2022-07-29T00:44:44;23.90;66.50
66708;DHT22;53622;0.000;0.000;2022-07-29T00:47:14;23.90;66.60
66708;DHT22;53622;0.000;0.000;2022-07-29T00:49:44;23.90;66.60
66708;DHT22;53622;0.000;0.000;2022-07-29T00:52:13;23.80;66.50
66708;DHT22;53622;0.000;0.000;2022-07-29T00:54:43;23.80;66.50
66708;DHT22;53622;0.000;0.000;2022-07-29T00:57:13;23.90;66.60
66708;DHT22;53622;0.000;0.000;2022-07-29T00:59:42;23.80;66.60
66708;DHT22;53622;0.000;0.000;2022-07-29T01:02:11;23.80;66.50
66708;DHT22;53622;0.000;0.000;2022-07-29T01:04:42;23.80;66.50
66708;DHT22;53622;0.000;0.000;2022-07-29T01:07:11;23.80;66.50
66708;DHT22;53622;0.000;0.000;2022-07-29T01:09:41;23.80;66.50
66708;DHT22;53622;0.000;0.000;2022-07-29T01:12:15;23.80;66.60
66708;DHT22;53622;0.000;0.000;2022-07-29T01:14:46;23.80;66.50
66708;DHT22;53622;0.000;0.000;2022-07-29T01:17:21;23.80;66.50
66708;DHT22;53622;0.000;0.000;2022-07-29T01:20:00;23.80;66.50
66708;DHT22;53622;0.000;0.000;2022-07-29T01:22:42;23.80;66.50
66708;DHT22;53622;0.000;0.000;2022-07-29T01:25:31;23.80;66.40
66708;DHT22;53622;0.000;0.000;2022-07-29T01:31:20;23.80;66.30
66708;DHT22;53622;0.000;0.000;2022-07-29T01:34:02;23.80;66.40
66708;DHT22;53622;0.000;0.000;2022-07-29T01:36:36;23.80;66.40
66708;DHT22;53622;0.000;0.000;2022-07-29T01:39:08;23.80;66.40
66708;DHT22;53622;0.000;0.000;2022-07-29T01:41:44;23.80;67.10
66708;DHT22;53622;0.000;0.000;2022-07-29T01:44:20;23.80;66.40
66708;DHT22;53622;0.000;0.000;2022-07-29T01:46:54;23.80;66.40
66708;DHT22;53622;0.000;0.000;2022-07-29T01:49:28;23.80;66.30
66708;DHT22;53622;0.000;0.000;2022-07-29T01:51:59;23.80;66.40
66708;DHT22;53622;0.000;0.000;2022-07-29T01:54:34;23.80;66.40
66708;DHT22;53622;0.000;0.000;2022-07-29T01:57:06;23.80;66.30
66708;DHT22;53622;0.000;0.000;2022-07-29T01:59:37;23.80;66.40
66708;DHT22;53622;0.000;0.000;2022-07-29T02:02:12;23.80;66.30
66708;DHT22;53622;0.000;0.000;2022-07-29T02:04:44;23.80;66.30
66708;DHT22;53622;0.000;0.000;2022-07-29T02:07:19;23.80;66.30
66708;DHT22;53622;0.000;0.000;2022-07-29T02:09:50;23.80;66.30
66708;DHT22;53622;0.000;0.000;2022-07-29T02:12:20;23.80;66.30
66708;DHT22;53622;0.000;0.000;2022-07-29T02:14:53;23.80;67.10
66708;DHT22;53622;0.000;0.000;2022-07-29T02:17:27;23.80;66.30
66708;DHT22;53622;0.000;0.000;2022-07-29T02:19:59;23.80;66.30
66708;DHT22;53622;0.000;0.000;2022-07-29T02:22:31;23.80;66.20
66708;DHT22;53622;0.000;0.000;2022-07-29T02:25:02;23.80;66.30
66708;DHT22;53622;0.000;0.000;2022-07-29T02:27:41;23.80;66.30
66708;DHT22;53622;0.000;0.000;2022-07-29T02:30:12;23.80;66.20
66708;DHT22;53622;0.000;0.000;2022-07-29T02:32:43;23.80;66.20
66708;DHT22;53622;0.000;0.000;2022-07-29T02:35:16;23.80;66.20
66708;DHT22;53622;0.000;0.000;2022-07-29T02:37:47;23.80;66.30
66708;DHT22;53622;0.000;0.000;2022-07-29T02:40:38;23.80;66.20
66708;DHT22;53622;0.000;0.000;2022-07-29T02:43:09;23.80;66.20
66708;DHT22;53622;0.000;0.000;2022-07-29T02:45:39;23.80;66.20
66708;DHT22;53622;0.000;0.000;2022-07-29T02:48:13;23.80;66.30
66708;DHT22;53622;0.000;0.000;2022-07-29T02:50:47;23.80;66.20
66708;DHT22;53622;0.000;0.000;2022-07-29T02:53:22;23.80;66.20
66708;DHT22;53622;0.000;0.000;2022-07-29T02:55:55;23.80;66.30
66708;DHT22;53622;0.000;0.000;2022-07-29T02:58:27;23.80;66.20
66708;DHT22;53622;0.000;0.000;2022-07-29T03:00:59;23.80;66.20
66708;DHT22;53622;0.000;0.000;2022-07-29T03:03:35;23.80;66.10
66708;DHT22;53622;0.000;0.000;2022-07-29T03:06:06;23.80;66.10
66708;DHT22;53622;0.000;0.000;2022-07-29T03:08:55;23.80;66.20
66708;DHT22;53622;0.000;0.000;2022-07-29T03:11:25;23.80;66.20
66708;DHT22;53622;0.000;0.000;2022-07-29T03:14:17;23.70;66.00
66708;DHT22;53622;0.000;0.000;2022-07-29T03:16:48;23.80;66.10
66708;DHT22;53622;0.000;0.000;2022-07-29T03:19:20;23.80;66.10
66708;DHT22;53622;0.000;0.000;2022-07-29T03:21:49;23.70;66.10
66708;DHT22;53622;0.000;0.000;2022-07-29T03:24:25;23.80;66.10
66708;DHT22;53622;0.000;0.000;2022-07-29T03:26:55;23.80;66.00
66708;DHT22;53622;0.000;0.000;2022-07-29T03:29:25;23.70;66.00
66708;DHT22;53622;0.000;0.000;2022-07-29T03:32:02;23.70;66.00
66708;DHT22;53622;0.000;0.000;2022-07-29T03:34:37;23.80;66.10
66708;DHT22;53622;0.000;0.000;2022-07-29T03:37:06;23.70;66.00
66708;DHT22;53622;0.000;0.000;2022-07-29T03:39:40;23.70;66.00
66708;DHT22;53622;0.000;0.000;2022-07-29T03:42:12;23.70;65.90
66708;DHT22;53622;0.000;0.000;2022-07-29T03:44:46;23.70;66.00
66708;DHT22;53622;0.000;0.000;2022-07-29T03:47:18;23.80;66.00
66708;DHT22;53622;0.000;0.000;2022-07-29T03:50:12;23.70;65.90
66708;DHT22;53622;0.000;0.000;2022-07-29T03:52:43;23.70;65.90
66708;DHT22;53622;0.000;0.000;2022-07-29T03:55:13;23.70;65.90
66708;DHT22;53622;0.000;0.000;2022-07-29T03:57:42;23.70;65.90
66708;DHT22;53622;0.000;0.000;2022-07-29T04:00:13;23.70;65.90
66708;DHT22;53622;0.000;0.000;2022-07-29T04:02:44;23.70;65.90
66708;DHT22;53622;0.000;0.000;2022-07-29T04:05:18;23.70;65.90
66708;DHT22;53622;0.000;0.000;2022-07-29T04:07:48;23.70;65.90
66708;DHT22;53622;0.000;0.000;2022-07-29T04:10:18;23.70;65.80
66708;DHT22;53622;0.000;0.000;2022-07-29T04:12:59;23.70;65.90
66708;DHT22;53622;0.000;0.000;2022-07-29T04:15:28;23.70;65.80
66708;DHT22;53622;0.000;0.000;2022-07-29T04:17:58;23.70;65.90
66708;DHT22;53622;0.000;0.000;2022-07-29T04:20:29;23.70;65.80
66708;DHT22;53622;0.000;0.000;2022-07-29T04:22:58;23.70;65.80
66708;DHT22;53622;0.000;0.000;2022-07-29T04:25:27;23.70;65.90
66708;DHT22;53622;0.000;0.000;2022-07-29T04:27:57;23.70;65.80
66708;DHT22;53622;0.000;0.000;2022-07-29T04:30:30;23.70;65.80
66708;DHT22;53622;0.000;0.000;2022-07-29T04:32:59;23.70;65.80
66708;DHT22;53622;0.000;0.000;2022-07-29T04:35:33;23.70;65.80
66708;DHT22;53622;0.000;0.000;2022-07-29T04:38:05;23.70;65.70
66708;DHT22;53622;0.000;0.000;2022-07-29T04:40:43;23.70;65.80
66708;DHT22;53622;0.000;0.000;2022-07-29T04:43:15;23.70;65.80
66708;DHT22;53622;0.000;0.000;2022-07-29T04:45:49;23.70;65.70
66708;DHT22;53622;0.000;0.000;2022-07-29T04:48:19;23.70;65.70
66708;DHT22;53622;0.000;0.000;2022-07-29T04:50:56;23.70;65.80
66708;DHT22;53622;0.000;0.000;2022-07-29T04:53:26;23.70;65.80
66708;DHT22;53622;0.000;0.000;2022-07-29T04:55:55;23.70;65.70
66708;DHT22;53622;0.000;0.000;2022-07-29T04:58:24;23.70;65.80
66708;DHT22;53622;0.000;0.000;2022-07-29T05:00:54;23.70;65.80
66708;DHT22;53622;0.000;0.000;2022-07-29T05:03:23;23.70;65.80
66708;DHT22;53622;0.000;0.000;2022-07-29T05:05:52;23.70;65.80
66708;DHT22;53622;0.000;0.000;2022-07-29T05:08:23;23.70;65.80
66708;DHT22;53622;0.000;0.000;2022-07-29T05:10:52;23.70;65.80
66708;DHT22;53622;0.000;0.000;2022-07-29T05:13:21;23.70;65.80
66708;DHT22;53622;0.000;0.000;2022-07-29T05:15:51;23.70;65.80
66708;DHT22;53622;0.000;0.000;2022-07-29T05:18:20;23.70;65.90
66708;DHT22;53622;0.000;0.000;2022-07-29T05:20:52;23.70;65.90
66708;DHT22;53622;0.000;0.000;2022-07-29T05:23:23;23.70;65.80
66708;DHT22;53622;0.000;0.000;2022-07-29T05:25:52;23.70;65.90
66708;DHT22;53622;0.000;0.000;2022-07-29T05:28:21;23.70;65.90
66708;DHT22;53622;0.000;0.000;2022-07-29T05:30:51;23.70;65.90
66708;DHT22;53622;0.000;0.000;2022-07-29T05:33:20;23.70;65.90
66708;DHT22;53622;0.000;0.000;2022-07-29T05:36:04;23.70;65.90
66708;DHT22;53622;0.000;0.000;2022-07-29T05:38:36;23.70;65.90
66708;DHT22;53622;0.000;0.000;2022-07-29T05:41:05;23.70;65.90
66708;DHT22;53622;0.000;0.000;2022-07-29T05:43:35;23.60;65.80
66708;DHT22;53622;0.000;0.000;2022-07-29T05:46:04;23.60;66.00
66708;DHT22;53622;0.000;0.000;2022-07-29T05:48:33;23.70;66.00
66708;DHT22;53622;0.000;0.000;2022-07-29T05:51:03;23.70;66.00
66708;DHT22;53622;0.000;0.000;2022-07-29T05:53:32;23.70;66.00
66708;DHT22;53622;0.000;0.000;2022-07-29T05:56:05;23.60;65.90
66708;DHT22;53622;0.000;0.000;2022-07-29T05:58:34;23.60;65.80
66708;DHT22;53622;0.000;0.000;2022-07-29T06:01:04;23.60;65.90
66708;DHT22;53622;0.000;0.000;2022-07-29T06:03:34;23.60;65.90
66708;DHT22;53622;0.000;0.000;2022-07-29T06:06:05;23.70;65.90
66708;DHT22;53622;0.000;0.000;2022-07-29T06:08:35;23.60;65.90
66708;DHT22;53622;0.000;0.000;2022-07-29T06:11:05;23.70;66.00
66708;DHT22;53622;0.000;0.000;2022-07-29T06:13:36;23.70;66.00
66708;DHT22;53622;0.000;0.000;2022-07-29T06:16:05;23.70;66.00
66708;DHT22;53622;0.000;0.000;2022-07-29T06:18:34;23.70;66.00
66708;DHT22;53622;0.000;0.000;2022-07-29T06:21:07;23.70;66.00
66708;DHT22;53622;0.000;0.000;2022-07-29T06:23:37;23.70;66.00
66708;DHT22;53622;0.000;0.000;2022-07-29T06:26:08;23.70;66.80
66708;DHT22;53622;0.000;0.000;2022-07-29T06:28:37;23.70;66.00
66708;DHT22;53622;0.000;0.000;2022-07-29T06:31:07;23.60;65.90
66708;DHT22;53622;0.000;0.000;2022-07-29T06:33:37;23.70;66.00
66708;DHT22;53622;0.000;0.000;2022-07-29T06:36:06;23.70;66.00
66708;DHT22;53622;0.000;0.000;2022-07-29T06:38:38;23.70;66.00
66708;DHT22;53622;0.000;0.000;2022-07-29T06:41:17;23.70;66.00
66708;DHT22;53622;0.000;0.000;2022-07-29T06:43:46;23.70;65.90
66708;DHT22;53622;0.000;0.000;2022-07-29T06:46:20;23.70;66.00
66708;DHT22;53622;0.000;0.000;2022-07-29T06:48:50;23.70;66.00
66708;DHT22;53622;0.000;0.000;2022-07-29T06:51:20;23.70;65.90
66708;DHT22;53622;0.000;0.000;2022-07-29T06:53:51;23.70;66.00
66708;DHT22;53622;0.000;0.000;2022-07-29T06:56:31;23.70;66.00
66708;DHT22;53622;0.000;0.000;2022-07-29T06:59:07;23.70;66.00
66708;DHT22;53622;0.000;0.000;2022-07-29T07:01:38;23.70;66.00
66708;DHT22;53622;0.000;0.000;2022-07-29T07:04:08;23.60;65.90
66708;DHT22;53622;0.000;0.000;2022-07-29T07:06:38;23.70;66.00
66708;DHT22;53622;0.000;0.000;2022-07-29T07:09:07;23.70;66.00
66708;DHT22;53622;0.000;0.000;2022-07-29T07:11:38;23.70;66.00
66708;DHT22;53622;0.000;0.000;2022-07-29T07:14:07;23.70;66.00
66708;DHT22;53622;0.000;0.000;2022-07-29T07:16:36;23.70;65.90
66708;DHT22;53622;0.000;0.000;2022-07-29T07:19:06;23.70;65.90
66708;DHT22;53622;0.000;0.000;2022-07-29T07:21:35;23.70;65.90
66708;DHT22;53622;0.000;0.000;2022-07-29T07:24:05;23.70;65.80
66708;DHT22;53622;0.000;0.000;2022-07-29T07:26:34;23.70;65.80
66708;DHT22;53622;0.000;0.000;2022-07-29T07:29:05;23.70;65.80
66708;DHT22;53622;0.000;0.000;2022-07-29T07:31:35;23.70;65.90
66708;DHT22;53622;0.000;0.000;2022-07-29T07:34:05;23.70;66.00
66708;DHT22;53622;0.000;0.000;2022-07-29T07:36:34;23.70;65.90
66708;DHT22;53622;0.000;0.000;2022-07-29T07:39:04;23.70;65.90
66708;DHT22;53622;0.000;0.000;2022-07-29T07:41:33;23.70;66.00
66708;DHT22;53622;0.000;0.000;2022-07-29T07:44:04;23.70;66.00
66708;DHT22;53622;0.000;0.000;2022-07-29T07:46:33;23.70;65.90
66708;DHT22;53622;0.000;0.000;2022-07-29T07:49:05;23.70;65.80
66708;DHT22;53622;0.000;0.000;2022-07-29T07:51:34;23.70;65.80
66708;DHT22;53622;0.000;0.000;2022-07-29T07:54:03;23.70;65.80
66708;DHT22;53622;0.000;0.000;2022-07-29T07:56:33;23.70;65.80
66708;DHT22;53622;0.000;0.000;2022-07-29T07:59:02;23.70;65.80
66708;DHT22;53622;0.000;0.000;2022-07-29T08:01:33;23.70;65.90
66708;DHT22;53622;0.000;0.000;2022-07-29T08:04:21;23.70;65.90
66708;DHT22;53622;0.000;0.000;2022-07-29T08:06:56;23.70;65.90
66708;DHT22;53622;0.000;0.000;2022-07-29T08:09:26;23.70;65.80
66708;DHT22;53622;0.000;0.000;2022-07-29T08:11:57;23.70;65.90
66708;DHT22;53622;0.000;0.000;2022-07-29T08:14:27;23.70;65.90
66708;DHT22;53622;0.000;0.000;2022-07-29T08:16:57;23.70;65.80
66708;DHT22;53622;0.000;0.000;2022-07-29T08:19:27;23.70;65.80
66708;DHT22;53622;0.000;0.000;2022-07-29T08:21:56;23.70;65.80
66708;DHT22;53622;0.000;0.000;2022-07-29T08:24:25;23.70;65.90
66708;DHT22;53622;0.000;0.000;2022-07-29T08:27:21;23.70;65.80
66708;DHT22;53622;0.000;0.000;2022-07-29T08:30:10;23.70;65.80
66708;DHT22;53622;0.000;0.000;2022-07-29T08:32:41;23.70;65.80
66708;DHT22;53622;0.000;0.000;2022-07-29T08:35:22;23.70;65.70
66708;DHT22;53622;0.000;0.000;2022-07-29T08:37:52;23.70;65.90
66708;DHT22;53622;0.000;0.000;2022-07-29T08:40:21;23.70;65.90
66708;DHT22;53622;0.000;0.000;2022-07-29T08:43:03;23.70;65.80
66708;DHT22;53622;0.000;0.000;2022-07-29T08:45:41;23.70;65.80
66708;DHT22;53622;0.000;0.000;2022-07-29T08:48:17;23.70;65.80
66708;DHT22;53622;0.000;0.000;2022-07-29T08:50:48;23.70;65.80
66708;DHT22;53622;0.000;0.000;2022-07-29T08:53:19;23.70;65.90
66708;DHT22;53622;0.000;0.000;2022-07-29T08:55:50;23.70;65.90
66708;DHT22;53622;0.000;0.000;2022-07-29T08:58:21;23.70;65.90
66708;DHT22;53622;0.000;0.000;2022-07-29T09:00:52;23.70;65.80
66708;DHT22;53622;0.000;0.000;2022-07-29T09:03:25;23.70;65.80
66708;DHT22;53622;0.000;0.000;2022-07-29T09:05:56;23.70;65.80
66708;DHT22;53622;0.000;0.000;2022-07-29T09:08:26;23.70;65.90
66708;DHT22;53622;0.000;0.000;2022-07-29T09:10:55;23.70;65.90
66708;DHT22;53622;0.000;0.000;2022-07-29T09:13:26;23.70;66.00
66708;DHT22;53622;0.000;0.000;2022-07-29T09:15:55;23.60;65.90
66708;DHT22;53622;0.000;0.000;2022-07-29T09:18:36;23.70;66.00
66708;DHT22;53622;0.000;0.000;2022-07-29T09:21:07;23.70;66.00
66708;DHT22;53622;0.000;0.000;2022-07-29T09:24:01;23.60;66.00
66708;DHT22;53622;0.000;0.000;2022-07-29T09:26:32;23.70;66.00
66708;DHT22;53622;0.000;0.000;2022-07-29T09:29:08;23.60;66.00
66708;DHT22;53622;0.000;0.000;2022-07-29T09:31:40;23.60;66.00
66708;DHT22;53622;0.000;0.000;2022-07-29T09:34:12;23.70;66.20
66708;DHT22;53622;0.000;0.000;2022-07-29T09:36:44;23.60;66.20
66708;DHT22;53622;0.000;0.000;2022-07-29T09:39:15;23.60;66.20
66708;DHT22;53622;0.000;0.000;2022-07-29T09:41:50;23.60;66.20
66708;DHT22;53622;0.000;0.000;2022-07-29T09:44:21;23.60;66.20
66708;DHT22;53622;0.000;0.000;2022-07-29T09:46:55;23.60;66.30
66708;DHT22;53622;0.000;0.000;2022-07-29T09:49:27;23.60;66.40
66708;DHT22;53622;0.000;0.000;2022-07-29T09:52:01;23.60;66.40
66708;DHT22;53622;0.000;0.000;2022-07-29T09:54:33;23.60;66.50
66708;DHT22;53622;0.000;0.000;2022-07-29T09:57:07;23.60;66.40
66708;DHT22;53622;0.000;0.000;2022-07-29T09:59:58;23.60;66.50
66708;DHT22;53622;0.000;0.000;2022-07-29T10:02:39;23.60;66.60
66708;DHT22;53622;0.000;0.000;2022-07-29T10:05:19;23.60;66.60
66708;DHT22;53622;0.000;0.000;2022-07-29T10:07:50;23.60;66.60
66708;DHT22;53622;0.000;0.000;2022-07-29T10:10:22;23.60;66.70
66708;DHT22;53622;0.000;0.000;2022-07-29T10:12:54;23.60;66.70
66708;DHT22;53622;0.000;0.000;2022-07-29T10:15:25;23.60;66.70
66708;DHT22;53622;0.000;0.000;2022-07-29T10:17:56;23.60;66.90
66708;DHT22;53622;0.000;0.000;2022-07-29T10:20:27;23.60;66.90
66708;DHT22;53622;0.000;0.000;2022-07-29T10:22:57;23.60;67.70
66708;DHT22;53622;0.000;0.000;2022-07-29T10:25:26;23.60;66.90
66708;DHT22;53622;0.000;0.000;2022-07-29T10:27:56;23.60;66.90
66708;DHT22;53622;0.000;0.000;2022-07-29T10:30:26;23.60;67.00
66708;DHT22;53622;0.000;0.000;2022-07-29T10:33:08;23.60;67.10
66708;DHT22;53622;0.000;0.000;2022-07-29T10:35:58;23.60;67.20
66708;DHT22;53622;0.000;0.000;2022-07-29T10:38:43;23.60;67.20
66708;DHT22;53622;0.000;0.000;2022-07-29T10:41:37;23.60;67.90
66708;DHT22;53622;0.000;0.000;2022-07-29T10:44:15;23.60;67.20
66708;DHT22;53622;0.000;0.000;2022-07-29T10:46:49;23.60;67.20
66708;DHT22;53622;0.000;0.000;2022-07-29T10:49:20;23.60;67.30
66708;DHT22;53622;0.000;0.000;2022-07-29T10:52:01;23.60;67.30
66708;DHT22;53622;0.000;0.000;2022-07-29T10:54:43;23.60;67.30
66708;DHT22;53622;0.000;0.000;2022-07-29T10:57:16;23.60;67.40
66708;DHT22;53622;0.000;0.000;2022-07-29T10:59:48;23.60;67.40
66708;DHT22;53622;0.000;0.000;2022-07-29T11:02:42;23.60;67.50
66708;DHT22;53622;0.000;0.000;2022-07-29T11:05:13;23.60;67.50
66708;DHT22;53622;0.000;0.000;2022-07-29T11:08:21;23.60;67.60
66708;DHT22;53622;0.000;0.000;2022-07-29T11:14:04;23.60;67.60
66708;DHT22;53622;0.000;0.000;2022-07-29T11:17:00;23.60;67.60
66708;DHT22;53622;0.000;0.000;2022-07-29T11:19:34;23.60;67.60
66708;DHT22;53622;0.000;0.000;2022-07-29T11:22:10;23.60;67.60
66708;DHT22;53622;0.000;0.000;2022-07-29T11:24:44;23.60;67.60
66708;DHT22;53622;0.000;0.000;2022-07-29T11:27:18;23.60;67.70
66708;DHT22;53622;0.000;0.000;2022-07-29T11:29:51;23.60;67.70
66708;DHT22;53622;0.000;0.000;2022-07-29T11:32:23;23.60;67.70
66708;DHT22;53622;0.000;0.000;2022-07-29T11:35:17;23.60;67.60
66708;DHT22;53622;0.000;0.000;2022-07-29T11:38:29;23.60;67.70
66708;DHT22;53622;0.000;0.000;2022-07-29T11:41:24;23.60;67.70
66708;DHT22;53622;0.000;0.000;2022-07-29T11:43:55;23.60;67.70
66708;DHT22;53622;0.000;0.000;2022-07-29T11:46:45;23.60;67.80
66708;DHT22;53622;0.000;0.000;2022-07-29T11:49:19;23.60;67.80
66708;DHT22;53622;0.000;0.000;2022-07-29T11:52:00;23.60;67.80
66708;DHT22;53622;0.000;0.000;2022-07-29T11:54:32;23.60;67.80
66708;DHT22;53622;0.000;0.000;2022-07-29T11:57:24;23.60;67.70
66708;DHT22;53622;0.000;0.000;2022-07-29T12:00:05;23.60;67.70
66708;DHT22;53622;0.000;0.000;2022-07-29T12:02:40;23.60;67.70
66708;DHT22;53622;0.000;0.000;2022-07-29T12:05:15;23.60;67.70
66708;DHT22;53622;0.000;0.000;2022-07-29T12:08:14;23.60;67.80
66708;DHT22;53622;0.000;0.000;2022-07-29T12:10:43;23.60;67.70
66708;DHT22;53622;0.000;0.000;2022-07-29T12:13:17;23.60;67.70
66708;DHT22;53622;0.000;0.000;2022-07-29T12:15:52;23.60;67.70
66708;DHT22;53622;0.000;0.000;2022-07-29T12:18:26;23.60;67.70
66708;DHT22;53622;0.000;0.000;2022-07-29T12:21:00;23.60;67.70
66708;DHT22;53622;0.000;0.000;2022-07-29T12:23:31;23.60;67.70
66708;DHT22;53622;0.000;0.000;2022-07-29T12:26:04;23.60;67.80
66708;DHT22;53622;0.000;0.000;2022-07-29T12:28:53;23.60;67.70
66708;DHT22;53622;0.000;0.000;2022-07-29T12:31:23;23.60;67.80
66708;DHT22;53622;0.000;0.000;2022-07-29T12:34:12;23.60;67.80
66708;DHT22;53622;0.000;0.000;2022-07-29T12:36:42;23.60;67.70
66708;DHT22;53622;0.000;0.000;2022-07-29T12:39:12;23.60;67.80
66708;DHT22;53622;0.000;0.000;2022-07-29T12:41:41;23.60;67.80
66708;DHT22;53622;0.000;0.000;2022-07-29T12:44:12;23.60;67.90
66708;DHT22;53622;0.000;0.000;2022-07-29T12:46:42;23.60;67.80
66708;DHT22;53622;0.000;0.000;2022-07-29T12:49:21;23.60;67.80
66708;DHT22;53622;0.000;0.000;2022-07-29T12:51:51;23.60;67.90
66708;DHT22;53622;0.000;0.000;2022-07-29T12:54:20;23.60;67.90
66708;DHT22;53622;0.000;0.000;2022-07-29T12:56:59;23.60;67.80
66708;DHT22;53622;0.000;0.000;2022-07-29T12:59:30;23.60;67.90
66708;DHT22;53622;0.000;0.000;2022-07-29T13:02:00;23.60;67.90
66708;DHT22;53622;0.000;0.000;2022-07-29T13:04:31;23.60;67.90
66708;DHT22;53622;0.000;0.000;2022-07-29T13:07:02;23.60;67.90
66708;DHT22;53622;0.000;0.000;2022-07-29T13:09:38;23.60;68.00
66708;DHT22;53622;0.000;0.000;2022-07-29T13:12:10;23.60;68.10
66708;DHT22;53622;0.000;0.000;2022-07-29T13:14:42;23.60;68.00
66708;DHT22;53622;0.000;0.000;2022-07-29T13:17:12;23.60;68.10
66708;DHT22;53622;0.000;0.000;2022-07-29T13:19:44;23.70;68.20
66708;DHT22;53622;0.000;0.000;2022-07-29T13:22:15;23.60;68.10
66708;DHT22;53622;0.000;0.000;2022-07-29T13:24:48;23.60;68.10
66708;DHT22;53622;0.000;0.000;2022-07-29T13:27:20;23.70;68.30
66708;DHT22;53622;0.000;0.000;2022-07-29T13:29:52;23.70;68.30
66708;DHT22;53622;0.000;0.000;2022-07-29T13:32:23;23.70;68.20
66708;DHT22;53622;0.000;0.000;2022-07-29T13:34:55;23.70;68.30
66708;DHT22;53622;0.000;0.000;2022-07-29T13:37:25;23.70;68.30
66708;DHT22;53622;0.000;0.000;2022-07-29T13:39:57;23.70;68.30
66708;DHT22;53622;0.000;0.000;2022-07-29T13:42:27;23.70;68.30
66708;DHT22;53622;0.000;0.000;2022-07-29T13:44:57;23.70;68.40
66708;DHT22;53622;0.000;0.000;2022-07-29T13:47:27;23.70;68.40
66708;DHT22;53622;0.000;0.000;2022-07-29T13:49:59;23.70;68.40
66708;DHT22;53622;0.000;0.000;2022-07-29T13:52:29;23.70;68.50
66708;DHT22;53622;0.000;0.000;2022-07-29T13:54:58;23.70;68.40
66708;DHT22;53622;0.000;0.000;2022-07-29T13:57:28;23.70;68.50
66708;DHT22;53622;0.000;0.000;2022-07-29T13:59:59;23.70;68.50
66708;DHT22;53622;0.000;0.000;2022-07-29T14:02:34;23.70;68.50
66708;DHT22;53622;0.000;0.000;2022-07-29T14:05:07;23.70;68.60
66708;DHT22;53622;0.000;0.000;2022-07-29T14:07:37;23.70;68.50
66708;DHT22;53622;0.000;0.000;2022-07-29T14:10:08;23.70;68.60
66708;DHT22;53622;0.000;0.000;2022-07-29T14:12:38;23.70;68.60
66708;DHT22;53622;0.000;0.000;2022-07-29T14:15:11;23.70;68.50
66708;DHT22;53622;0.000;0.000;2022-07-29T14:17:40;23.70;68.40
66708;DHT22;53622;0.000;0.000;2022-07-29T14:20:10;23.70;69.30
66708;DHT22;53622;0.000;0.000;2022-07-29T14:22:39;23.70;68.70
66708;DHT22;53622;0.000;0.000;2022-07-29T14:25:09;23.70;68.60
66708;DHT22;53622;0.000;0.000;2022-07-29T14:27:42;23.70;68.60
66708;DHT22;53622;0.000;0.000;2022-07-29T14:30:13;23.70;68.50
66708;DHT22;53622;0.000;0.000;2022-07-29T14:32:43;23.70;68.70
66708;DHT22;53622;0.000;0.000;2022-07-29T14:35:13;23.70;68.80
66708;DHT22;53622;0.000;0.000;2022-07-29T14:37:42;23.70;68.60
66708;DHT22;53622;0.000;0.000;2022-07-29T14:40:11;23.70;68.70
66708;DHT22;53622;0.000;0.000;2022-07-29T14:42:40;23.70;68.90
66708;DHT22;53622;0.000;0.000;2022-07-29T14:45:14;23.70;68.70
66708;DHT22;53622;0.000;0.000;2022-07-29T14:47:43;23.70;68.70
66708;DHT22;53622;0.000;0.000;2022-07-29T14:50:12;23.70;68.80
66708;DHT22;53622;0.000;0.000;2022-07-29T14:52:42;23.70;68.80
66708;DHT22;53622;0.000;0.000;2022-07-29T14:55:12;23.70;69.00
66708;DHT22;53622;0.000;0.000;2022-07-29T14:57:47;23.70;68.80
66708;DHT22;53622;0.000;0.000;2022-07-29T15:00:19;23.70;68.50
66708;DHT22;53622;0.000;0.000;2022-07-29T15:02:48;23.70;68.90
66708;DHT22;53622;0.000;0.000;2022-07-29T15:05:37;23.70;68.90
66708;DHT22;53622;0.000;0.000;2022-07-29T15:08:07;23.70;68.90
66708;DHT22;53622;0.000;0.000;2022-07-29T15:10:36;23.70;69.00
66708;DHT22;53622;0.000;0.000;2022-07-29T15:13:06;23.70;68.90
66708;DHT22;53622;0.000;0.000;2022-07-29T15:15:36;23.70;68.70
66708;DHT22;53622;0.000;0.000;2022-07-29T15:18:06;23.70;68.90
66708;DHT22;53622;0.000;0.000;2022-07-29T15:20:36;23.70;69.10
66708;DHT22;53622;0.000;0.000;2022-07-29T15:23:06;23.70;68.90
66708;DHT22;53622;0.000;0.000;2022-07-29T15:25:37;23.70;68.90
66708;DHT22;53622;0.000;0.000;2022-07-29T15:28:06;23.70;68.90
66708;DHT22;53622;0.000;0.000;2022-07-29T15:30:37;23.70;69.00
66708;DHT22;53622;0.000;0.000;2022-07-29T15:33:09;23.70;68.90
66708;DHT22;53622;0.000;0.000;2022-07-29T15:35:38;23.70;68.90
66708;DHT22;53622;0.000;0.000;2022-07-29T15:38:08;23.70;69.00
66708;DHT22;53622;0.000;0.000;2022-07-29T15:40:38;23.70;68.90
66708;DHT22;53622;0.000;0.000;2022-07-29T15:43:09;23.70;69.00
66708;DHT22;53622;0.000;0.000;2022-07-29T15:45:40;23.70;69.70
66708;DHT22;53622;0.000;0.000;2022-07-29T15:48:30;23.70;69.00
66708;DHT22;53622;0.000;0.000;2022-07-29T15:51:00;23.70;69.00
66708;DHT22;53622;0.000;0.000;2022-07-29T15:53:30;23.70;69.00
66708;DHT22;53622;0.000;0.000;2022-07-29T15:56:02;23.70;68.80
66708;DHT22;53622;0.000;0.000;2022-07-29T15:58:31;23.70;68.90
66708;DHT22;53622;0.000;0.000;2022-07-29T16:01:02;23.70;68.70
66708;DHT22;53622;0.000;0.000;2022-07-29T16:03:31;23.70;69.00
66708;DHT22;53622;0.000;0.000;2022-07-29T16:06:01;23.70;69.00
66708;DHT22;53622;0.000;0.000;2022-07-29T16:08:30;23.70;68.80
66708;DHT22;53622;0.000;0.000;2022-07-29T16:10:59;23.70;69.10
66708;DHT22;53622;0.000;0.000;2022-07-29T16:13:29;23.70;68.80
66708;DHT22;53622;0.000;0.000;2022-07-29T16:15:58;23.70;68.80
66708;DHT22;53622;0.000;0.000;2022-07-29T16:18:34;23.70;68.80
66708;DHT22;53622;0.000;0.000;2022-07-29T16:21:03;23.70;69.10
66708;DHT22;53622;0.000;0.000;2022-07-29T16:23:33;23.70;68.90
66708;DHT22;53622;0.000;0.000;2022-07-29T16:26:02;23.80;69.10
66708;DHT22;53622;0.000;0.000;2022-07-29T16:28:31;23.80;69.20